Time,TemperatureF,DewpointF,PressureIn,WindDirection,WindDirectionDegrees,WindSpeedMPH,WindSpeedGustMPH,Humidity,HourlyPrecipIn,Conditions,Clouds,dailyrainin,SoftwareType,DateUTC
2013-04-25 00:00:00,43.3,30.8,29.96,South,180,3.0,9.0,61,0.00, +TSGR FG,SKC,-99.99,VWS V12.07,2013-04-25 05:00:00,
2013-04-25 00:05:00,43.3,30.8,29.97,South,184,2.0,9.0,61,0.00, +TSGR FG,SKC,-99.99,VWS V12.07,2013-04-25 05:05:00,
2013-04-25 00:10:00,43.2,30.7,29.96,South,184,5.0,9.0,61,0.00, +TSGR FG,SKC,-99.99,VWS V12.07,2013-04-25 05:10:00,
2013-04-25 00:15:00,43.2,31.1,29.96,South,175,7.0,10.0,62,0.00, +TSGR FG,SKC,-99.99,VWS V12.07,2013-04-25 05:15:00,
2013-04-25 00:20:00,43.2,30.7,29.96,South,186,4.0,10.0,61,0.00, +TSGR FG,SKC,-99.99,VWS V12.07,2013-04-25 05:20:00,
2013-04-25 00:25:00,43.2,31.1,29.96,SSW,194,2.0,9.0,62,0.00, +TSGR FG,SKC,-99.99,VWS V12.07,2013-04-25 05:25:00,
2013-04-25 00:30:00,43.2,31.1,29.96,SW,219,3.0,9.0,62,0.00, +TSGR FG,SKC,-99.99,VWS V12.07,2013-04-25 05:30:00,
2013-04-25 00:35:00,43.2,31.1,29.96,SSE,167,8.0,9.0,62,0.00, +TSGR FG,SKC,-99.99,VWS V12.07,2013-04-25 05:35:00,
2013-04-25 00:40:00,43.2,31.5,29.95,SSW,195,3.0,9.0,63,0.00, +TSGR FG,SKC,-99.99,VWS V12.07,2013-04-25 05:40:00,
2013-04-25 00:45:00,43.1,31.4,29.95,SSW,196,4.0,8.0,63,0.00, +TSGR FG,SKC,-99.99,VWS V12.07,2013-04-25 05:45:00,
2013-04-25 00:50:00,43.1,31.4,29.95,SSW,205,4.0,9.0,63,0.00, +TSGR FG,SKC,-99.99,VWS V12.07,2013-04-25 05:50:00,
2013-04-25 00:55:00,43.1,31.4,29.95,South,184,2.0,7.0,63,0.00, +TSGR FG,SKC,-99.99,VWS V12.07,2013-04-25 05:55:00,
2013-04-25 01:00:00,43.1,31.8,29.95,SSE,162,2.0,7.0,64,0.00, +TSGR FG,SKC,-99.99,VWS V12.07,2013-04-25 06:00:00,
2013-04-25 01:05:00,43.2,31.9,29.94,SSW,209,3.0,9.0,64,0.00, +TSGR FG,SKC,-99.99,VWS V12.07,2013-04-25 06:05:00,
2013-04-25 01:10:00,43.4,31.7,29.94,South,184,4.0,11.0,63,0.00, +TSGR FG,SKC,-99.99,VWS V12.07,2013-04-25 06:10:00,
2013-04-25 01:15:00,43.6,31.9,29.94,SSE,163,5.0,8.0,63,0.00, +TSGR FG,SKC,-99.99,VWS V12.07,2013-04-25 06:15:00,
2013-04-25 01:20:00,43.8,32.0,29.94,SSW,206,6.0,13.0,63,0.00, +TSGR FG,SKC,-99.99,VWS V12.07,2013-04-25 06:20:00,
2013-04-25 01:25:00,44.0,32.2,29.94,SSW,194,8.0,8.0,63,0.00, +TSGR FG,SKC,-99.99,VWS V12.07,2013-04-25 06:25:00,
2013-04-25 01:30:00,44.1,31.9,29.94,South,173,1.0,8.0,62,0.00, +TSGR FG,SKC,-99.99,VWS V12.07,2013-04-25 06:30:00,
2013-04-25 01:35:00,44.2,32.0,29.94,South,179,4.0,8.0,62,0.00, +TSGR FG,SKC,-99.99,VWS V12.07,2013-04-25 06:35:00,
2013-04-25 01:40:00,44.5,32.3,29.93,SSW,211,3.0,12.0,62,0.00, +TSGR FG,SKC,-99.99,VWS V12.07,2013-04-25 06:40:00,
2013-04-25 01:45:00,44.6,32.4,29.93,West,277,8.0,17.0,62,0.00, +TSGR FG,SKC,-99.99,VWS V12.07,2013-04-25 06:45:00,
2013-04-25 01:50:00,44.7,32.5,29.93,SW,226,6.0,17.0,62,0.00, +TSGR FG,SKC,-99.99,VWS V12.07,2013-04-25 06:50:00,
2013-04-25 01:55:00,44.7,32.5,29.93,SW,229,9.0,9.0,62,0.00, +TSGR FG,SKC,-99.99,VWS V12.07,2013-04-25 06:55:00,
2013-04-25 02:00:00,44.7,32.5,29.93,SW,223,6.0,9.0,62,0.00, +TSGR FG,SKC,-99.99,VWS V12.07,2013-04-25 07:00:00,
2013-04-25 02:05:00,44.7,32.5,29.93,SSW,197,5.0,11.0,62,0.00, +TSGR FG,SKC,-99.99,VWS V12.07,2013-04-25 07:05:00,
2013-04-25 02:10:00,44.7,32.9,29.93,SW,221,9.0,14.0,63,0.00, +TSGR FG,SKC,-99.99,VWS V12.07,2013-04-25 07:10:00,
2013-04-25 02:15:00,44.6,32.8,29.93,WSW,240,2.0,6.0,63,0.00, +TSGR FG,SKC,-99.99,VWS V12.07,2013-04-25 07:15:00,
2013-04-25 02:20:00,44.6,33.2,29.93,South,190,5.0,9.0,64,0.00, +TSGR FG,SKC,-99.99,VWS V12.07,2013-04-25 07:20:00,
2013-04-25 02:25:00,44.3,34.0,29.93,SSW,192,6.0,10.0,67,0.00, +TSGR FG,SKC,-99.99,VWS V12.07,2013-04-25 07:25:00,
2013-04-25 02:30:00,43.6,34.8,29.93,SW,221,5.0,17.0,71,0.00, +TSGR FG,SKC,-99.99,VWS V12.07,2013-04-25 07:30:00,
2013-04-25 02:35:00,43.0,35.3,29.92,SSW,211,2.0,9.0,74,0.00, +TSGR FG,SKC,-99.99,VWS V12.07,2013-04-25 07:35:00,
2013-04-25 02:40:00,42.7,35.3,29.92,WSW,243,4.0,13.0,75,0.00, +TSGR FG,SKC,-99.99,VWS V12.07,2013-04-25 07:40:00,
2013-04-25 02:45:00,42.5,35.5,29.92,West,264,2.0,8.0,76,0.00, +TSGR FG,SKC,-99.99,VWS V12.07,2013-04-25 07:45:00,
2013-04-25 02:50:00,42.4,35.7,29.92,West,265,2.0,8.0,77,0.00, +TSGR FG,SKC,-99.99,VWS V12.07,2013-04-25 07:50:00,
2013-04-25 02:55:00,42.4,35.7,29.92,WNW,296,3.0,9.0,77,0.00, +TSGR FG,SKC,-99.99,VWS V12.07,2013-04-25 07:55:00,
2013-04-25 03:00:00,42.4,35.7,29.92,WSW,247,0.0,11.0,77,0.00, +TSGR FG,SKC,-99.99,VWS V12.07,2013-04-25 08:00:00,
2013-04-25 03:05:00,42.4,36.0,29.92,West,259,1.0,6.0,78,0.00, +TSGR FG,SKC,-99.99,VWS V12.07,2013-04-25 08:05:00,
2013-04-25 03:10:00,42.4,36.0,29.92,SW,214,1.0,7.0,78,0.00, +TSGR FG,SKC,-99.99,VWS V12.07,2013-04-25 08:10:00,
2013-04-25 03:15:00,42.4,37.3,29.92,SSW,211,1.0,7.0,82,0.00, +TSGR FG,SKC,-99.99,VWS V12.07,2013-04-25 08:15:00,
2013-04-25 03:20:00,42.4,37.6,29.92,WSW,252,5.0,7.0,83,0.00, +TSGR FG,SKC,-99.99,VWS V12.07,2013-04-25 08:20:00,
2013-04-25 03:25:00,42.4,36.4,29.92,South,180,1.0,6.0,79,0.00, +TSGR FG,SKC,-99.99,VWS V12.07,2013-04-25 08:25:00,
2013-04-25 03:30:00,42.4,36.4,29.92,WSW,239,9.0,9.0,79,0.00, +TSGR FG,SKC,-99.99,VWS V12.07,2013-04-25 08:30:00,
2013-04-25 03:35:00,42.4,36.4,29.92,WSW,243,3.0,6.0,79,0.00, +TSGR FG,SKC,-99.99,VWS V12.07,2013-04-25 08:35:00,
2013-04-25 03:40:00,42.4,36.4,29.92,West,273,2.0,6.0,79,0.00, +TSGR FG,SKC,-99.99,VWS V12.07,2013-04-25 08:40:00,
2013-04-25 03:45:00,42.4,36.4,29.92,SSW,211,5.0,8.0,79,0.00, +TSGR FG,SKC,-99.99,VWS V12.07,2013-04-25 08:45:00,
2013-04-25 03:50:00,42.3,36.6,29.92,WSW,242,7.0,8.0,80,0.00, +TSGR FG,SKC,-99.99,VWS V12.07,2013-04-25 08:50:00,
2013-04-25 03:55:00,42.3,36.6,29.92,WSW,253,8.0,8.0,80,0.00, +TSGR FG,SKC,-99.99,VWS V12.07,2013-04-25 08:55:00,
2013-04-25 04:00:00,42.2,36.5,29.92,SW,225,0.0,10.0,80,0.00, +TSGR FG,SKC,-99.99,VWS V12.07,2013-04-25 09:00:00,
2013-04-25 04:05:00,42.1,36.7,29.92,SW,224,2.0,5.0,81,0.00, +TSGR FG,SKC,-99.99,VWS V12.07,2013-04-25 09:05:00,
2013-04-25 04:10:00,42.0,36.6,29.92,SSW,212,7.0,9.0,81,0.00, +TSGR FG,SKC,-99.99,VWS V12.07,2013-04-25 09:10:00,
2013-04-25 04:15:00,42.0,36.6,29.92,West,277,4.0,8.0,81,0.00, +TSGR FG,SKC,-99.99,VWS V12.07,2013-04-25 09:15:00,
2013-04-25 04:25:00,42.1,37.0,29.92,West,273,2.0,9.0,82,0.00, +TSGR FG,SKC,-99.99,VWS V12.07,2013-04-25 09:25:00,
2013-04-25 04:30:00,42.1,37.0,29.93,WSW,258,0.0,9.0,82,0.00, +TSGR FG,SKC,-99.99,VWS V12.07,2013-04-25 09:30:00,
2013-04-25 04:35:00,42.0,36.9,29.93,SSW,201,3.0,8.0,82,0.00, +TSGR FG,SKC,-99.99,VWS V12.07,2013-04-25 09:35:00,
2013-04-25 04:40:00,42.0,36.9,29.93,WNW,298,1.0,8.0,82,0.00, +TSGR FG,SKC,-99.99,VWS V12.07,2013-04-25 09:40:00,
2013-04-25 04:45:00,42.0,37.2,29.93,West,260,1.0,13.0,83,0.00, +TSGR FG,SKC,-99.99,VWS V12.07,2013-04-25 09:45:00,
2013-04-25 04:50:00,42.0,37.2,29.93,NNW,339,4.0,13.0,83,0.00, +TSGR FG,SKC,-99.99,VWS V12.07,2013-04-25 09:50:00,
2013-04-25 04:55:00,41.9,37.1,29.93,SSW,212,9.0,13.0,83,0.00, +TSGR FG,SKC,-99.99,VWS V12.07,2013-04-25 09:55:00,
2013-04-25 05:00:00,41.9,37.1,29.93,West,280,3.0,13.0,83,0.00, +TSGR FG,SKC,-99.99,VWS V12.07,2013-04-25 10:00:00,
2013-04-25 05:05:00,41.7,36.9,29.93,WNW,291,4.0,8.0,83,0.00, +TSGR FG,SKC,-99.99,VWS V12.07,2013-04-25 10:05:00,
2013-04-25 05:10:00,41.5,36.7,29.93,WNW,294,1.0,8.0,83,0.00, +TSGR FG,SKC,-99.99,VWS V12.07,2013-04-25 10:10:00,
2013-04-25 05:15:00,41.3,36.5,29.94,NW,317,5.0,5.0,83,0.00, +TSGR FG,SKC,-99.99,VWS V12.07,2013-04-25 10:15:00,
2013-04-25 05:20:00,41.2,36.7,29.94,SW,236,6.0,7.0,84,0.00, +TSGR FG,SKC,-99.99,VWS V12.07,2013-04-25 10:20:00,
2013-04-25 05:25:00,41.2,36.7,29.95,WSW,257,2.0,10.0,84,0.00, +TSGR FG,SKC,-99.99,VWS V12.07,2013-04-25 10:25:00,
2013-04-25 05:30:00,40.4,36.0,29.95,NW,311,2.0,10.0,84,0.00, +TSGR FG,SKC,-99.99,VWS V12.07,2013-04-25 10:30:00,
2013-04-25 05:35:00,39.7,35.3,29.95,NNW,343,0.0,8.0,84,0.01, +TSGR FG,SKC,-99.99,VWS V12.07,2013-04-25 10:35:00,
2013-04-25 05:40:00,39.2,35.1,29.95,West,279,3.0,8.0,85,0.01, +TSGR FG,SKC,-99.99,VWS V12.07,2013-04-25 10:40:00,
2013-04-25 05:45:00,38.8,35.0,29.95,WSW,242,1.0,6.0,86,0.01, +TSGR FG,SKC,-99.99,VWS V12.07,2013-04-25 10:45:00,
2013-04-25 05:50:00,38.4,34.9,29.95,SW,229,0.0,6.0,87,0.01, +TSGR FG,SKC,-99.99,VWS V12.07,2013-04-25 10:50:00,
2013-04-25 05:55:00,38.2,34.7,29.95,SW,236,0.0,5.0,87,0.01, +TSGR FG,SKC,-99.99,VWS V12.07,2013-04-25 10:55:00,
2013-04-25 06:00:00,38.0,34.8,29.95,WSW,244,0.0,5.0,88,0.01, +TSGR FG,SKC,-99.99,VWS V12.07,2013-04-25 11:00:00,
2013-04-25 06:05:00,37.9,34.7,29.96,SW,230,0.0,3.0,88,0.01, +TSGR FG,SKC,-99.99,VWS V12.07,2013-04-25 11:05:00,
2013-04-25 06:10:00,38.0,34.8,29.96,WNW,284,3.0,5.0,88,0.01, +TSGR FG,SKC,-99.99,VWS V12.07,2013-04-25 11:10:00,
2013-04-25 06:15:00,38.2,35.0,29.96,NW,313,2.0,6.0,88,0.01, +TSGR FG,SKC,-99.99,VWS V12.07,2013-04-25 11:15:00,
2013-04-25 06:20:00,38.4,35.5,29.97,NNW,339,6.0,12.0,89,0.01, +TSGR FG,SKC,-99.99,VWS V12.07,2013-04-25 11:20:00,
2013-04-25 06:25:00,38.8,35.6,29.97,NW,321,6.0,10.0,88,0.02, +TSGR FG,SKC,-99.99,VWS V12.07,2013-04-25 11:25:00,
2013-04-25 06:30:00,38.7,35.2,29.97,NW,326,4.0,10.0,87,0.02, +TSGR FG,SKC,-99.99,VWS V12.07,2013-04-25 11:30:00,
2013-04-25 06:35:00,38.6,35.1,29.97,NNW,327,3.0,5.0,87,0.02, +TSGR FG,SKC,-99.99,VWS V12.07,2013-04-25 11:35:00,
2013-04-25 06:40:00,38.6,35.1,29.97,NW,311,2.0,5.0,87,0.02, +TSGR FG,SKC,-99.99,VWS V12.07,2013-04-25 11:40:00,
2013-04-25 06:45:00,38.5,35.0,29.98,NW,311,0.0,3.0,87,0.01, +TSGR FG,SKC,-99.99,VWS V12.07,2013-04-25 11:45:00,
2013-04-25 06:50:00,38.4,34.9,29.98,West,279,1.0,4.0,87,0.01, +TSGR FG,SKC,-99.99,VWS V12.07,2013-04-25 11:50:00,
2013-04-25 06:55:00,38.4,34.9,29.98,NW,310,1.0,4.0,87,0.01, +TSGR FG,SKC,-99.99,VWS V12.07,2013-04-25 11:55:00,
2013-04-25 07:00:00,38.6,35.4,29.98,WNW,288,0.0,4.0,88,0.01, +TSGR FG,SKC,-99.99,VWS V12.07,2013-04-25 12:00:00,
2013-04-25 07:05:00,39.0,35.8,29.98,NNW,337,4.0,7.0,88,0.01, +TSGR FG,SKC,-99.99,VWS V12.07,2013-04-25 12:05:00,
2013-04-25 07:10:00,39.5,36.0,29.99,WSW,252,5.0,7.0,87,0.01, +TSGR FG,SKC,-99.99,VWS V12.07,2013-04-25 12:10:00,
2013-04-25 07:15:00,40.1,36.5,29.99,SW,227,3.0,4.0,87,0.01, +TSGR FG,SKC,-99.99,VWS V12.07,2013-04-25 12:15:00,
2013-04-25 07:20:00,40.6,37.0,29.99,WNW,291,0.0,9.0,87,0.01, +TSGR FG,SKC,-99.99,VWS V12.07,2013-04-25 12:20:00,
2013-04-25 07:25:00,40.8,36.7,29.99,SW,231,3.0,7.0,85,0.00, +TSGR FG,SKC,-99.99,VWS V12.07,2013-04-25 12:25:00,
2013-04-25 07:30:00,40.7,36.5,30.00,WSW,249,1.0,7.0,85,0.01, +TSGR FG,SKC,-99.99,VWS V12.07,2013-04-25 12:30:00,
2013-04-25 07:35:00,40.7,36.2,30.00,WSW,249,1.0,5.0,84,0.01, +TSGR FG,SKC,-99.99,VWS V12.07,2013-04-25 12:35:00,
2013-04-25 07:40:00,40.9,36.8,30.00,WNW,291,0.0,5.0,85,0.01, +TSGR FG,SKC,-99.99,VWS V12.07,2013-04-25 12:40:00,
2013-04-25 07:45:00,41.4,36.9,30.00,West,269,2.0,6.0,84,0.01, +TSGR FG,SKC,-99.99,VWS V12.07,2013-04-25 12:45:00,
2013-04-25 07:50:00,41.7,37.2,30.01,West,279,0.0,6.0,84,0.01, +TSGR FG,SKC,-99.99,VWS V12.07,2013-04-25 12:50:00,
2013-04-25 07:55:00,41.8,37.0,30.01,NNW,327,6.0,9.0,83,0.01, +TSGR FG,SKC,-99.99,VWS V12.07,2013-04-25 12:55:00,
2013-04-25 08:00:00,41.7,36.9,30.01,West,275,2.0,9.0,83,0.01, +TSGR FG,SKC,-99.99,VWS V12.07,2013-04-25 13:00:00,
2013-04-25 08:05:00,41.2,36.7,30.02,WSW,246,1.0,4.0,84,0.01, +TSGR FG,SKC,-99.99,VWS V12.07,2013-04-25 13:05:00,
2013-04-25 08:10:00,40.9,36.8,30.02,West,269,0.0,9.0,85,0.01, +TSGR FG,SKC,-99.99,VWS V12.07,2013-04-25 13:10:00,
2013-04-25 08:15:00,40.1,36.0,30.02,NNW,344,2.0,6.0,85,0.01, +TSGR FG,SKC,-99.99,VWS V12.07,2013-04-25 13:15:00,
2013-04-25 08:20:00,39.7,35.9,30.02,WNW,294,2.0,6.0,86,0.01, +TSGR FG,SKC,-99.99,VWS V12.07,2013-04-25 13:20:00,
2013-04-25 08:25:00,39.2,35.7,30.03,NW,307,0.0,5.0,87,0.01, +TSGR FG,SKC,-99.99,VWS V12.07,2013-04-25 13:25:00,
2013-04-25 08:30:00,39.0,35.8,30.03,West,267,3.0,7.0,88,0.01, +TSGR FG,SKC,-99.99,VWS V12.07,2013-04-25 13:30:00,
2013-04-25 08:35:00,39.0,36.0,30.03,WNW,295,3.0,5.0,89,0.00, +TSGR FG,SKC,-99.99,VWS V12.07,2013-04-25 13:35:00,
2013-04-25 08:40:00,39.6,36.9,30.03,NW,326,3.0,7.0,90,0.00, +TSGR FG,SKC,-99.99,VWS V12.07,2013-04-25 13:40:00,
2013-04-25 08:45:00,40.3,37.6,30.03,WNW,300,2.0,5.0,90,0.00, +TSGR FG,SKC,-99.99,VWS V12.07,2013-04-25 13:45:00,
2013-04-25 08:50:00,40.6,37.3,30.04,NW,321,4.0,8.0,88,0.00, +TSGR FG,SKC,-99.99,VWS V12.07,2013-04-25 13:50:00,
2013-04-25 08:55:00,40.6,37.0,30.04,NW,313,3.0,11.0,87,0.00, +TSGR FG,SKC,-99.99,VWS V12.07,2013-04-25 13:55:00,
2013-04-25 09:00:00,40.9,37.3,30.04,NW,319,5.0,11.0,87,0.00, +TSGR FG,SKC,-99.99,VWS V12.07,2013-04-25 14:00:00,
2013-04-25 09:05:00,41.0,37.1,30.05,WNW,282,3.0,9.0,86,0.00, +TSGR FG,SKC,-99.99,VWS V12.07,2013-04-25 14:05:00,
2013-04-25 09:10:00,41.2,37.0,30.04,SW,220,3.0,9.0,85,0.00, +TSGR FG,SKC,-99.99,VWS V12.07,2013-04-25 14:10:00,
2013-04-25 09:15:00,41.3,37.1,30.05,NW,319,6.0,8.0,85,0.00, +TSGR FG,SKC,-99.99,VWS V12.07,2013-04-25 14:15:00,
2013-04-25 09:20:00,41.6,37.1,30.05,NW,319,2.0,10.0,84,0.00, +TSGR FG,SKC,-99.99,VWS V12.07,2013-04-25 14:20:00,
2013-04-25 09:25:00,42.0,37.2,30.05,NNW,341,12.0,12.0,83,0.00, +TSGR FG,SKC,-99.99,VWS V12.07,2013-04-25 14:25:00,
2013-04-25 09:30:00,42.3,37.2,30.05,WNW,295,2.0,12.0,82,0.00, +TSGR FG,SKC,-99.99,VWS V12.07,2013-04-25 14:30:00,
2013-04-25 09:35:00,42.5,36.8,30.05,West,264,4.0,6.0,80,0.00, +TSGR FG,SKC,-99.99,VWS V12.07,2013-04-25 14:35:00,
2013-04-25 09:40:00,42.5,36.5,30.06,WSW,248,4.0,11.0,79,0.00, +TSGR FG,SKC,-99.99,VWS V12.07,2013-04-25 14:40:00,
2013-04-25 09:45:00,42.7,36.7,30.06,WNW,298,3.0,8.0,79,0.00, +TSGR FG,SKC,-99.99,VWS V12.07,2013-04-25 14:45:00,
2013-04-25 09:50:00,43.4,36.3,30.06,WNW,300,7.0,9.0,76,0.00, +TSGR FG,SKC,-99.99,VWS V12.07,2013-04-25 14:50:00,
2013-04-25 09:55:00,43.9,36.2,30.07,SW,215,5.0,12.0,74,0.00, +TSGR FG,SKC,-99.99,VWS V12.07,2013-04-25 14:55:00,
2013-04-25 10:00:00,44.2,35.8,30.07,NW,320,5.0,12.0,72,0.00, +TSGR FG,SKC,-99.99,VWS V12.07,2013-04-25 15:00:00,
2013-04-25 10:05:00,44.9,36.4,30.07,NNW,336,2.0,12.0,72,0.00, +TSGR FG,SKC,-99.99,VWS V12.07,2013-04-25 15:05:00,
2013-04-25 10:10:00,45.3,36.5,30.07,WNW,285,3.0,12.0,71,0.00, +TSGR FG,SKC,-99.99,VWS V12.07,2013-04-25 15:10:00,
2013-04-25 10:15:00,44.9,35.4,30.07,West,276,7.0,8.0,69,0.00, +TSGR FG,SKC,-99.99,VWS V12.07,2013-04-25 15:15:00,
2013-04-25 10:20:00,44.6,34.7,30.08,SSW,206,3.0,12.0,68,0.00, +TSGR FG,SKC,-99.99,VWS V12.07,2013-04-25 15:20:00,
2013-04-25 10:25:00,44.6,34.3,30.08,NW,307,2.0,11.0,67,0.00, +TSGR FG,SKC,-99.99,VWS V12.07,2013-04-25 15:25:00,
2013-04-25 10:30:00,45.4,35.1,30.08,North,9,7.0,11.0,67,0.00, +TSGR FG,SKC,-99.99,VWS V12.07,2013-04-25 15:30:00,
2013-04-25 10:35:00,46.1,34.2,30.08,WNW,292,5.0,8.0,63,0.00, +TSGR FG,SKC,-99.99,VWS V12.07,2013-04-25 15:35:00,
2013-04-25 10:40:00,46.2,32.7,30.08,WNW,302,6.0,12.0,59,0.00, +TSGR FG,SKC,-99.99,VWS V12.07,2013-04-25 15:40:00,
2013-04-25 10:45:00,46.0,33.7,30.08,WNW,300,6.0,13.0,62,0.00, +TSGR FG,SKC,-99.99,VWS V12.07,2013-04-25 15:45:00,
2013-04-25 10:50:00,45.9,34.0,30.09,NW,324,2.0,13.0,63,0.00, +TSGR FG,SKC,-99.99,VWS V12.07,2013-04-25 15:50:00,
2013-04-25 10:55:00,45.8,33.9,30.09,West,275,2.0,7.0,63,0.00, +TSGR FG,SKC,-99.99,VWS V12.07,2013-04-25 15:55:00,
2013-04-25 11:00:00,46.5,34.2,30.09,West,270,10.0,10.0,62,0.00, +TSGR FG,SKC,-99.99,VWS V12.07,2013-04-25 16:00:00,
2013-04-25 11:05:00,47.1,34.4,30.09,West,272,3.0,7.0,61,0.00, +TSGR FG,SKC,-99.99,VWS V12.07,2013-04-25 16:05:00,
2013-04-25 11:10:00,47.1,34.8,30.09,WNW,296,5.0,7.0,62,0.00, +TSGR FG,SKC,-99.99,VWS V12.07,2013-04-25 16:10:00,
2013-04-25 11:15:00,47.4,34.2,30.09,NW,325,3.0,6.0,60,0.00, +TSGR FG,SKC,-99.99,VWS V12.07,2013-04-25 16:15:00,
2013-04-25 11:20:00,47.3,33.3,30.10,NW,313,3.0,8.0,58,0.00, +TSGR FG,SKC,-99.99,VWS V12.07,2013-04-25 16:20:00,
2013-04-25 11:25:00,46.8,32.8,30.10,NW,326,8.0,9.0,58,0.00, +TSGR FG,SKC,-99.99,VWS V12.07,2013-04-25 16:25:00,
2013-04-25 11:30:00,47.2,32.3,30.10,NNW,331,9.0,10.0,56,0.00, +TSGR FG,SKC,-99.99,VWS V12.07,2013-04-25 16:30:00,
2013-04-25 11:35:00,47.6,33.6,30.10,NW,326,2.0,11.0,58,0.00, +TSGR FG,SKC,-99.99,VWS V12.07,2013-04-25 16:35:00,
2013-04-25 11:40:00,47.6,33.6,30.10,NNW,337,4.0,11.0,58,0.00, +TSGR FG,SKC,-99.99,VWS V12.07,2013-04-25 16:40:00,
2013-04-25 11:45:00,47.2,34.9,30.10,NW,313,2.0,10.0,62,0.00, +TSGR FG,SKC,-99.99,VWS V12.07,2013-04-25 16:45:00,
2013-04-25 11:50:00,47.2,34.5,30.10,WNW,290,3.0,11.0,61,0.00, +TSGR FG,SKC,-99.99,VWS V12.07,2013-04-25 16:50:00,
2013-04-25 11:55:00,47.5,33.5,30.11,North,355,4.0,7.0,58,0.00, +TSGR FG,SKC,-99.99,VWS V12.07,2013-04-25 16:55:00,
2013-04-25 12:00:00,48.3,34.2,30.11,WNW,284,4.0,9.0,58,0.00, +TSGR FG,SKC,-99.99,VWS V12.07,2013-04-25 17:00:00,
2013-04-25 12:05:00,48.9,34.3,30.11,WNW,298,5.0,8.0,57,0.00, +TSGR FG,SKC,-99.99,VWS V12.07,2013-04-25 17:05:00,
2013-04-25 12:10:00,48.7,34.2,30.11,WSW,248,3.0,11.0,57,0.00, +TSGR FG,SKC,-99.99,VWS V12.07,2013-04-25 17:10:00,
2013-04-25 12:15:00,48.1,33.2,30.11,NNW,337,7.0,9.0,56,0.00, +TSGR FG,SKC,-99.99,VWS V12.07,2013-04-25 17:15:00,
2013-04-25 12:20:00,47.9,34.7,30.12,NNW,329,6.0,9.0,60,0.00, +TSGR FG,SKC,-99.99,VWS V12.07,2013-04-25 17:20:00,
2013-04-25 12:25:00,48.4,33.4,30.12,NW,313,3.0,10.0,56,0.00, +TSGR FG,SKC,-99.99,VWS V12.07,2013-04-25 17:25:00,
2013-04-25 12:30:00,48.9,35.2,30.12,NW,306,2.0,13.0,59,0.00, +TSGR FG,SKC,-99.99,VWS V12.07,2013-04-25 17:30:00,
2013-04-25 12:35:00,49.4,33.9,30.12,WNW,296,7.0,7.0,55,0.00, +TSGR FG,SKC,-99.99,VWS V12.07,2013-04-25 17:35:00,
2013-04-25 12:40:00,48.9,33.5,30.12,West,281,2.0,10.0,55,0.00, +TSGR FG,SKC,-99.99,VWS V12.07,2013-04-25 17:40:00,
2013-04-25 12:45:00,48.3,33.3,30.12,SW,235,4.0,8.0,56,0.00, +TSGR FG,SKC,-99.99,VWS V12.07,2013-04-25 17:45:00,
2013-04-25 12:50:00,48.4,33.9,30.12,NW,306,0.0,8.0,57,0.00, +TSGR FG,SKC,-99.99,VWS V12.07,2013-04-25 17:50:00,
2013-04-25 12:55:00,48.6,34.1,30.13,WNW,297,2.0,9.0,57,0.00, +TSGR FG,SKC,-99.99,VWS V12.07,2013-04-25 17:55:00,
2013-04-25 13:00:00,49.5,34.5,30.13,WNW,299,2.0,10.0,56,0.00, +TSGR FG,SKC,-99.99,VWS V12.07,2013-04-25 18:00:00,
2013-04-25 13:05:00,50.3,34.3,30.13,NNW,346,5.0,10.0,54,0.00, +TSGR FG,SKC,-99.99,VWS V12.07,2013-04-25 18:05:00,
2013-04-25 13:10:00,49.9,33.5,30.13,WNW,294,5.0,10.0,53,0.00, +TSGR FG,SKC,-99.99,VWS V12.07,2013-04-25 18:10:00,
2013-04-25 13:15:00,50.5,32.1,30.13,NNW,335,5.0,7.0,49,0.00, +TSGR FG,SKC,-99.99,VWS V12.07,2013-04-25 18:15:00,
2013-04-25 13:20:00,51.2,34.2,30.13,NW,325,2.0,8.0,52,0.00, +TSGR FG,SKC,-99.99,VWS V12.07,2013-04-25 18:20:00,
2013-04-25 13:25:00,51.9,34.4,30.13,South,186,1.0,7.0,51,0.00, +TSGR FG,SKC,-99.99,VWS V12.07,2013-04-25 18:25:00,
2013-04-25 13:30:00,51.9,33.4,30.14,West,264,1.0,7.0,49,0.00, +TSGR FG,SKC,-99.99,VWS V12.07,2013-04-25 18:30:00,
2013-04-25 13:35:00,51.5,33.0,30.14,West,263,2.0,5.0,49,0.00, +TSGR FG,SKC,-99.99,VWS V12.07,2013-04-25 18:35:00,
2013-04-25 13:40:00,50.9,31.4,30.14,NW,317,4.0,11.0,47,0.00, +TSGR FG,SKC,-99.99,VWS V12.07,2013-04-25 18:40:00,
2013-04-25 13:45:00,50.7,31.7,30.14,WSW,250,8.0,10.0,48,0.00, +TSGR FG,SKC,-99.99,VWS V12.07,2013-04-25 18:45:00,
2013-04-25 13:50:00,50.2,32.3,30.14,NW,305,1.0,10.0,50,0.00, +TSGR FG,SKC,-99.99,VWS V12.07,2013-04-25 18:50:00,
2013-04-25 13:55:00,50.1,31.7,30.14,West,273,1.0,7.0,49,0.00, +TSGR FG,SKC,-99.99,VWS V12.07,2013-04-25 18:55:00,
2013-04-25 14:00:00,50.0,31.6,30.14,NW,313,0.0,7.0,49,0.00, +TSGR FG,SKC,-99.99,VWS V12.07,2013-04-25 19:00:00,
2013-04-25 14:05:00,50.1,33.2,30.15,WNW,298,4.0,8.0,52,0.00, +TSGR FG,SKC,-99.99,VWS V12.07,2013-04-25 19:05:00,
2013-04-25 14:10:00,50.1,34.1,30.15,NNW,337,0.0,8.0,54,0.00, +TSGR FG,SKC,-99.99,VWS V12.07,2013-04-25 19:10:00,
2013-04-25 14:15:00,51.2,34.2,30.15,SW,235,7.0,9.0,52,0.00, +TSGR FG,SKC,-99.99,VWS V12.07,2013-04-25 19:15:00,
2013-04-25 14:20:00,51.5,33.0,30.15,NNW,331,2.0,9.0,49,0.00, +TSGR FG,SKC,-99.99,VWS V12.07,2013-04-25 19:20:00,
2013-04-25 14:25:00,50.6,32.7,30.15,NNW,331,1.0,6.0,50,0.00, +TSGR FG,SKC,-99.99,VWS V12.07,2013-04-25 19:25:00,
2013-04-25 14:30:00,50.3,33.4,30.15,WSW,252,2.0,7.0,52,0.00, +TSGR FG,SKC,-99.99,VWS V12.07,2013-04-25 19:30:00,
2013-04-25 14:35:00,50.8,33.3,30.15,NW,311,5.0,5.0,51,0.00, +TSGR FG,SKC,-99.99,VWS V12.07,2013-04-25 19:35:00,
2013-04-25 14:40:00,51.4,34.4,30.15,WNW,288,2.0,8.0,52,0.00, +TSGR FG,SKC,-99.99,VWS V12.07,2013-04-25 19:40:00,
2013-04-25 14:45:00,51.5,33.5,30.16,West,278,7.0,10.0,50,0.00, +TSGR FG,SKC,-99.99,VWS V12.07,2013-04-25 19:45:00,
2013-04-25 14:50:00,51.2,33.7,30.16,NW,306,1.0,10.0,51,0.00, +TSGR FG,SKC,-99.99,VWS V12.07,2013-04-25 19:50:00,
2013-04-25 14:55:00,50.8,31.3,30.16,West,271,2.0,11.0,47,0.00, +TSGR FG,SKC,-99.99,VWS V12.07,2013-04-25 19:55:00,
2013-04-25 15:00:00,50.2,30.2,30.16,NNW,340,10.0,11.0,46,0.00, +TSGR FG,SKC,-99.99,VWS V12.07,2013-04-25 20:00:00,
2013-04-25 15:05:00,50.0,29.5,30.16,NW,325,3.0,10.0,45,0.00, +TSGR FG,SKC,-99.99,VWS V12.07,2013-04-25 20:05:00,
2013-04-25 15:10:00,49.8,30.4,30.15,West,277,0.0,10.0,47,0.00, +TSGR FG,SKC,-99.99,VWS V12.07,2013-04-25 20:10:00,
2013-04-25 15:15:00,49.9,33.0,30.16,WNW,295,3.0,6.0,52,0.00, +TSGR FG,SKC,-99.99,VWS V12.07,2013-04-25 20:15:00,
2013-04-25 15:20:00,49.6,32.7,30.15,WNW,301,3.0,6.0,52,0.00, +TSGR FG,SKC,-99.99,VWS V12.07,2013-04-25 20:20:00,
2013-04-25 15:25:00,49.6,34.1,30.15,SW,223,3.0,7.0,55,0.00, +TSGR FG,SKC,-99.99,VWS V12.07,2013-04-25 20:25:00,
2013-04-25 15:30:00,49.7,34.2,30.15,West,268,3.0,7.0,55,0.00, +TSGR FG,SKC,-99.99,VWS V12.07,2013-04-25 20:30:00,
2013-04-25 15:35:00,49.9,32.0,30.15,NW,306,2.0,6.0,50,0.00, +TSGR FG,SKC,-99.99,VWS V12.07,2013-04-25 20:35:00,
2013-04-25 15:40:00,50.0,31.1,30.15,WNW,290,3.0,7.0,48,0.00, +TSGR FG,SKC,-99.99,VWS V12.07,2013-04-25 20:40:00,
2013-04-25 15:45:00,50.2,33.3,30.15,SW,236,5.0,9.0,52,0.00, +TSGR FG,SKC,-99.99,VWS V12.07,2013-04-25 20:45:00,
2013-04-25 15:50:00,50.7,32.2,30.15,South,170,2.0,9.0,49,0.00, +TSGR FG,SKC,-99.99,VWS V12.07,2013-04-25 20:50:00,
2013-04-25 15:55:00,51.9,32.8,30.15,SW,220,4.0,10.0,48,0.00, +TSGR FG,SKC,-99.99,VWS V12.07,2013-04-25 20:55:00,
2013-04-25 16:00:00,52.0,31.3,30.16,SSW,193,2.0,10.0,45,0.00, +TSGR FG,SKC,-99.99,VWS V12.07,2013-04-25 21:00:00,
2013-04-25 16:05:00,51.7,32.1,30.15,NW,323,3.0,7.0,47,0.00, +TSGR FG,SKC,-99.99,VWS V12.07,2013-04-25 21:05:00,
2013-04-25 16:10:00,51.9,31.2,30.15,SW,229,4.0,7.0,45,0.00, +TSGR FG,SKC,-99.99,VWS V12.07,2013-04-25 21:10:00,
2013-04-25 16:15:00,51.8,31.1,30.15,West,261,2.0,5.0,45,0.00, +TSGR FG,SKC,-99.99,VWS V12.07,2013-04-25 21:15:00,
2013-04-25 16:20:00,51.9,31.2,30.15,SSW,195,5.0,6.0,45,0.00, +TSGR FG,SKC,-99.99,VWS V12.07,2013-04-25 21:20:00,
2013-04-25 16:25:00,52.5,31.8,30.15,West,275,6.0,6.0,45,0.00, +TSGR FG,SKC,-99.99,VWS V12.07,2013-04-25 21:25:00,
2013-04-25 16:30:00,52.7,30.9,30.16,West,267,1.0,9.0,43,0.00, +TSGR FG,SKC,-99.99,VWS V12.07,2013-04-25 21:30:00,
2013-04-25 16:35:00,52.9,29.2,30.16,SW,229,2.0,6.0,40,0.00, +TSGR FG,SKC,-99.99,VWS V12.07,2013-04-25 21:35:00,
2013-04-25 16:40:00,52.8,31.5,30.16,West,262,2.0,6.0,44,0.00, +TSGR FG,SKC,-99.99,VWS V12.07,2013-04-25 21:40:00,
2013-04-25 16:45:00,52.3,29.3,30.16,SW,219,4.0,9.0,41,0.00, +TSGR FG,SKC,-99.99,VWS V12.07,2013-04-25 21:45:00,
2013-04-25 16:50:00,52.0,30.8,30.16,SSW,207,4.0,9.0,44,0.00, +TSGR FG,SKC,-99.99,VWS V12.07,2013-04-25 21:50:00,
2013-04-25 16:55:00,52.1,30.3,30.16,WSW,252,5.0,8.0,43,0.00, +TSGR FG,SKC,-99.99,VWS V12.07,2013-04-25 21:55:00,
2013-04-25 17:00:00,52.2,30.4,30.15,SSW,202,7.0,8.0,43,0.00, +TSGR FG,SKC,-99.99,VWS V12.07,2013-04-25 22:00:00,
2013-04-25 17:05:00,52.1,29.1,30.16,WSW,252,5.0,9.0,41,0.00, +TSGR FG,SKC,-99.99,VWS V12.07,2013-04-25 22:05:00,
2013-04-25 17:10:00,52.5,28.9,30.16,WSW,239,4.0,9.0,40,0.00, +TSGR FG,SKC,-99.99,VWS V12.07,2013-04-25 22:10:00,
2013-04-25 17:15:00,52.6,29.0,30.16,South,176,2.0,9.0,40,0.00, +TSGR FG,SKC,-99.99,VWS V12.07,2013-04-25 22:15:00,
2013-04-25 17:20:00,52.8,29.2,30.16,West,265,2.0,9.0,40,0.00, +TSGR FG,SKC,-99.99,VWS V12.07,2013-04-25 22:20:00,
2013-04-25 17:25:00,52.0,29.0,30.16,West,272,1.0,5.0,41,0.00, +TSGR FG,SKC,-99.99,VWS V12.07,2013-04-25 22:25:00,
2013-04-25 17:30:00,51.3,29.6,30.16,NW,320,1.0,5.0,43,0.00, +TSGR FG,SKC,-99.99,VWS V12.07,2013-04-25 22:30:00,
2013-04-25 17:35:00,51.5,29.8,30.16,WNW,292,0.0,6.0,43,0.00, +TSGR FG,SKC,-99.99,VWS V12.07,2013-04-25 22:35:00,
2013-04-25 17:40:00,51.6,28.7,30.16,WSW,244,1.0,6.0,41,0.00, +TSGR FG,SKC,-99.99,VWS V12.07,2013-04-25 22:40:00,
2013-04-25 17:45:00,51.2,28.9,30.17,WNW,293,0.0,5.0,42,0.00, +TSGR FG,SKC,-99.99,VWS V12.07,2013-04-25 22:45:00,
2013-04-25 17:50:00,51.0,29.3,30.17,NNW,331,1.0,5.0,43,0.00, +TSGR FG,SKC,-99.99,VWS V12.07,2013-04-25 22:50:00,
2013-04-25 17:55:00,51.2,28.3,30.16,West,271,0.0,6.0,41,0.00, +TSGR FG,SKC,-99.99,VWS V12.07,2013-04-25 22:55:00,
2013-04-25 18:00:00,51.6,29.9,30.17,SW,229,2.0,6.0,43,0.00, +TSGR FG,SKC,-99.99,VWS V12.07,2013-04-25 23:00:00,
2013-04-25 18:05:00,51.7,29.9,30.17,WSW,239,3.0,5.0,43,0.00, +TSGR FG,SKC,-99.99,VWS V12.07,2013-04-25 23:05:00,
2013-04-25 18:10:00,51.4,27.3,30.17,SW,233,2.0,8.0,39,0.00, +TSGR FG,SKC,-99.99,VWS V12.07,2013-04-25 23:10:00,
2013-04-25 18:15:00,50.8,28.0,30.17,SSW,206,3.0,4.0,41,0.00, +TSGR FG,SKC,-99.99,VWS V12.07,2013-04-25 23:15:00,
2013-04-25 18:20:00,50.3,28.1,30.17,West,269,3.0,4.0,42,0.00, +TSGR FG,SKC,-99.99,VWS V12.07,2013-04-25 23:20:00,
2013-04-25 18:25:00,50.0,29.5,30.17,WSW,254,0.0,4.0,45,0.00, +TSGR FG,SKC,-99.99,VWS V12.07,2013-04-25 23:25:00,
2013-04-25 18:30:00,49.9,28.9,30.17,WSW,254,3.0,4.0,44,0.00, +TSGR FG,SKC,-99.99,VWS V12.07,2013-04-25 23:30:00,
2013-04-25 18:35:00,49.8,28.2,30.17,WSW,239,1.0,5.0,43,0.00, +TSGR FG,SKC,-99.99,VWS V12.07,2013-04-25 23:35:00,
2013-04-25 18:45:00,49.4,29.0,30.17,WSW,248,0.0,3.0,45,0.00, +TSGR FG,SKC,-99.99,VWS V12.07,2013-04-25 23:45:00,
2013-04-25 18:50:00,49.4,29.5,30.17,WSW,240,3.0,3.0,46,0.00, +TSGR FG,SKC,-99.99,VWS V12.07,2013-04-25 23:50:00,
2013-04-25 18:55:00,49.6,30.7,30.17,NW,304,2.0,2.0,48,0.00, +TSGR FG,SKC,-99.99,VWS V12.07,2013-04-25 23:55:00,
2013-04-25 19:00:00,49.5,29.6,30.17,NW,304,3.0,5.0,46,0.00, +TSGR FG,SKC,-99.99,VWS V12.07,2013-04-26 00:00:00,
2013-04-25 19:05:00,49.3,29.4,30.17,NW,318,3.0,3.0,46,0.00, +TSGR FG,SKC,-99.99,VWS V12.07,2013-04-26 00:05:00,
2013-04-25 19:10:00,49.2,29.3,30.17,West,263,2.0,4.0,46,0.00, +TSGR FG,SKC,-99.99,VWS V12.07,2013-04-26 00:10:00,
2013-04-25 19:15:00,48.9,29.0,30.17,NW,304,1.0,3.0,46,0.00, +TSGR FG,SKC,-99.99,VWS V12.07,2013-04-26 00:15:00,
2013-04-25 19:20:00,48.7,29.4,30.18,WSW,252,0.0,3.0,47,0.00, +TSGR FG,SKC,-99.99,VWS V12.07,2013-04-26 00:20:00,
2013-04-25 19:25:00,48.4,29.1,30.18,WSW,242,0.0,4.0,47,0.00, +TSGR FG,SKC,-99.99,VWS V12.07,2013-04-26 00:25:00,
2013-04-25 19:30:00,48.2,30.0,30.18,SW,215,2.0,4.0,49,0.00, +TSGR FG,SKC,-99.99,VWS V12.07,2013-04-26 00:30:00,
2013-04-25 19:35:00,48.0,29.3,30.18,West,262,1.0,4.0,48,0.00, +TSGR FG,SKC,-99.99,VWS V12.07,2013-04-26 00:35:00,
2013-04-25 19:40:00,47.8,29.1,30.18,WSW,257,0.0,4.0,48,0.00, +TSGR FG,SKC,-99.99,VWS V12.07,2013-04-26 00:40:00,
2013-04-25 19:45:00,47.5,29.8,30.18,WNW,290,0.0,6.0,50,0.00, +TSGR FG,SKC,-99.99,VWS V12.07,2013-04-26 00:45:00,
2013-04-25 19:50:00,47.3,30.1,30.18,SW,221,3.0,7.0,51,0.00, +TSGR FG,SKC,-99.99,VWS V12.07,2013-04-26 00:50:00,
2013-04-25 19:55:00,47.1,30.4,30.18,SSW,200,5.0,5.0,52,0.00, +TSGR FG,SKC,-99.99,VWS V12.07,2013-04-26 00:55:00,
2013-04-25 20:00:00,46.9,29.7,30.18,WNW,294,1.0,5.0,51,0.00, +TSGR FG,SKC,-99.99,VWS V12.07,2013-04-26 01:00:00,
2013-04-25 20:05:00,46.7,30.0,30.18,SW,223,0.0,3.0,52,0.00, +TSGR FG,SKC,-99.99,VWS V12.07,2013-04-26 01:05:00,
2013-04-25 20:10:00,46.4,29.8,30.18,SW,223,0.0,3.0,52,0.00, +TSGR FG,SKC,-99.99,VWS V12.07,2013-04-26 01:10:00,
2013-04-25 20:15:00,46.1,29.9,30.19,SW,223,0.0,0.0,53,0.00, +TSGR FG,SKC,-99.99,VWS V12.07,2013-04-26 01:15:00,
2013-04-25 20:20:00,45.8,30.1,30.19,SW,223,1.0,2.0,54,0.00, +TSGR FG,SKC,-99.99,VWS V12.07,2013-04-26 01:20:00,
2013-04-25 20:25:00,45.6,29.9,30.18,SW,223,0.0,1.0,54,0.00, +TSGR FG,SKC,-99.99,VWS V12.07,2013-04-26 01:25:00,
2013-04-25 20:30:00,45.5,30.3,30.19,SW,223,0.0,1.0,55,0.00, +TSGR FG,SKC,-99.99,VWS V12.07,2013-04-26 01:30:00,
2013-04-25 20:35:00,45.2,30.0,30.19,SW,223,0.0,0.0,55,0.00, +TSGR FG,SKC,-99.99,VWS V12.07,2013-04-26 01:35:00,
2013-04-25 20:40:00,44.9,30.6,30.19,SW,223,0.0,0.0,57,0.00, +TSGR FG,SKC,-99.99,VWS V12.07,2013-04-26 01:40:00,
2013-04-25 20:45:00,44.5,30.2,30.19,SW,223,0.0,1.0,57,0.00, +TSGR FG,SKC,-99.99,VWS V12.07,2013-04-26 01:45:00,
2013-04-25 20:50:00,44.3,30.0,30.20,SW,223,0.0,1.0,57,0.00, +TSGR FG,SKC,-99.99,VWS V12.07,2013-04-26 01:50:00,
2013-04-25 21:00:00,43.8,30.4,30.20,SW,223,0.0,1.0,59,0.00, +TSGR FG,SKC,-99.99,VWS V12.07,2013-04-26 02:00:00,
2013-04-25 21:05:00,43.5,30.5,30.20,SW,223,0.0,0.0,60,0.00, +TSGR FG,SKC,-99.99,VWS V12.07,2013-04-26 02:05:00,
2013-04-25 21:10:00,43.2,30.7,30.20,SW,223,0.0,0.0,61,0.00, +TSGR FG,SKC,-99.99,VWS V12.07,2013-04-26 02:10:00,
2013-04-25 21:20:00,42.7,31.0,30.21,SW,223,0.0,1.0,63,0.00, +TSGR FG,SKC,-99.99,VWS V12.07,2013-04-26 02:20:00,
2013-04-25 21:25:00,42.6,30.9,30.21,SW,223,0.0,1.0,63,0.00, +TSGR FG,SKC,-99.99,VWS V12.07,2013-04-26 02:25:00,
2013-04-25 21:30:00,42.5,31.2,30.22,SW,223,0.0,1.0,64,0.00, +TSGR FG,SKC,-99.99,VWS V12.07,2013-04-26 02:30:00,
2013-04-25 21:35:00,42.3,31.0,30.22,SW,223,0.0,0.0,64,0.00, +TSGR FG,SKC,-99.99,VWS V12.07,2013-04-26 02:35:00,
2013-04-25 21:40:00,42.0,31.1,30.22,SW,223,0.0,0.0,65,0.00, +TSGR FG,SKC,-99.99,VWS V12.07,2013-04-26 02:40:00,
2013-04-25 21:45:00,41.8,30.9,30.22,SW,223,0.0,0.0,65,0.00, +TSGR FG,SKC,-99.99,VWS V12.07,2013-04-26 02:45:00,
2013-04-25 21:50:00,41.5,30.6,30.22,SW,223,0.0,0.0,65,0.00, +TSGR FG,SKC,-99.99,VWS V12.07,2013-04-26 02:50:00,
2013-04-25 21:55:00,41.3,30.8,30.22,SW,223,0.0,0.0,66,0.00, +TSGR FG,SKC,-99.99,VWS V12.07,2013-04-26 02:55:00,
2013-04-25 22:00:00,41.1,30.6,30.23,SW,223,0.0,0.0,66,0.00, +TSGR FG,SKC,-99.99,VWS V12.07,2013-04-26 03:00:00,
2013-04-25 22:05:00,40.8,30.7,30.23,SW,223,0.0,0.0,67,0.00, +TSGR FG,SKC,-99.99,VWS V12.07,2013-04-26 03:05:00,
2013-04-25 22:10:00,40.6,30.9,30.23,SW,223,0.0,0.0,68,0.00, +TSGR FG,SKC,-99.99,VWS V12.07,2013-04-26 03:10:00,
2013-04-25 22:15:00,40.4,30.7,30.23,SW,223,0.0,0.0,68,0.00, +TSGR FG,SKC,-99.99,VWS V12.07,2013-04-26 03:15:00,
2013-04-25 22:20:00,40.2,30.9,30.23,SW,223,0.0,0.0,69,0.00, +TSGR FG,SKC,-99.99,VWS V12.07,2013-04-26 03:20:00,
2013-04-25 22:25:00,40.0,31.0,30.23,SW,223,0.0,0.0,70,0.00, +TSGR FG,SKC,-99.99,VWS V12.07,2013-04-26 03:25:00,
2013-04-25 22:30:00,39.7,30.7,30.23,SW,223,0.0,0.0,70,0.00, +TSGR FG,SKC,-99.99,VWS V12.07,2013-04-26 03:30:00,
2013-04-25 22:35:00,39.5,30.9,30.23,SW,223,0.0,0.0,71,0.00, +TSGR FG,SKC,-99.99,VWS V12.07,2013-04-26 03:35:00,
2013-04-25 22:40:00,39.2,31.0,30.23,SW,223,0.0,0.0,72,0.00, +TSGR FG,SKC,-99.99,VWS V12.07,2013-04-26 03:40:00,
2013-04-25 22:45:00,38.9,31.0,30.23,SW,223,0.0,0.0,73,0.00, +TSGR FG,SKC,-99.99,VWS V12.07,2013-04-26 03:45:00,
2013-04-25 22:50:00,38.8,30.9,30.23,SW,223,0.0,0.0,73,0.00, +TSGR FG,SKC,-99.99,VWS V12.07,2013-04-26 03:50:00,
2013-04-25 22:55:00,38.9,31.0,30.23,SW,223,0.0,1.0,73,0.00, +TSGR FG,SKC,-99.99,VWS V12.07,2013-04-26 03:55:00,
2013-04-25 23:05:00,39.3,31.4,30.23,SW,223,0.0,0.0,73,0.00, +TSGR FG,SKC,-99.99,VWS V12.07,2013-04-26 04:05:00,
2013-04-25 23:10:00,39.3,31.4,30.24,SW,223,0.0,0.0,73,0.00, +TSGR FG,SKC,-99.99,VWS V12.07,2013-04-26 04:10:00,
2013-04-25 23:15:00,39.2,31.3,30.24,SW,223,0.0,0.0,73,0.00, +TSGR FG,SKC,-99.99,VWS V12.07,2013-04-26 04:15:00,
2013-04-25 23:20:00,39.0,31.1,30.24,SW,223,0.0,0.0,73,0.00, +TSGR FG,SKC,-99.99,VWS V12.07,2013-04-26 04:20:00,
2013-04-25 23:25:00,39.0,31.4,30.24,SW,223,0.0,0.0,74,0.00, +TSGR FG,SKC,-99.99,VWS V12.07,2013-04-26 04:25:00,
2013-04-25 23:30:00,39.1,31.5,30.24,SW,223,0.0,0.0,74,0.00, +TSGR FG,SKC,-99.99,VWS V12.07,2013-04-26 04:30:00,
2013-04-25 23:35:00,39.1,31.2,30.24,SW,223,0.0,0.0,73,0.00, +TSGR FG,SKC,-99.99,VWS V12.07,2013-04-26 04:35:00,
2013-04-25 23:40:00,39.0,31.4,30.24,SW,223,0.0,2.0,74,0.00, +TSGR FG,SKC,-99.99,VWS V12.07,2013-04-26 04:40:00,
2013-04-25 23:45:00,39.1,31.2,30.24,SW,223,0.0,0.0,73,0.00, +TSGR FG,SKC,-99.99,VWS V12.07,2013-04-26 04:45:00,
2013-04-25 23:50:00,39.0,31.1,30.24,SW,223,0.0,0.0,73,0.00, +TSGR FG,SKC,-99.99,VWS V12.07,2013-04-26 04:50:00,
2013-04-25 23:55:00,38.9,31.3,30.24,SW,223,0.0,0.0,74,0.00, +TSGR FG,SKC,-99.99,VWS V12.07,2013-04-26 04:55:00,